sensor_id;sensor_type;location;lat;lon;timestamp;P1;durP1;ratioP1;P2;durP2;ratioP2
67162;SDS011;54092;53.088;8.850;2023-09-30T00:02:22;15.95;;;3.80;;
67162;SDS011;54092;53.088;8.850;2023-09-30T00:04:47;15.25;;;3.80;;
67162;SDS011;54092;53.088;8.850;2023-09-30T00:07:13;14.50;;;3.67;;
67162;SDS011;54092;53.088;8.850;2023-09-30T00:09:39;11.23;;;3.47;;
67162;SDS011;54092;53.088;8.850;2023-09-30T00:12:05;13.82;;;4.35;;
67162;SDS011;54092;53.088;8.850;2023-09-30T00:14:31;13.20;;;3.80;;
67162;SDS011;54092;53.088;8.850;2023-09-30T00:16:57;12.98;;;3.67;;
67162;SDS011;54092;53.088;8.850;2023-09-30T00:19:22;19.85;;;3.88;;
67162;SDS011;54092;53.088;8.850;2023-09-30T00:21:48;12.73;;;3.97;;
67162;SDS011;54092;53.088;8.850;2023-09-30T00:24:14;15.63;;;3.80;;
67162;SDS011;54092;53.088;8.850;2023-09-30T00:26:39;17.02;;;4.18;;
67162;SDS011;54092;53.088;8.850;2023-09-30T00:29:05;17.35;;;4.47;;
67162;SDS011;54092;53.088;8.850;2023-09-30T00:31:31;15.55;;;3.67;;
67162;SDS011;54092;53.088;8.850;2023-09-30T00:33:57;10.45;;;3.60;;
67162;SDS011;54092;53.088;8.850;2023-09-30T00:36:23;13.75;;;3.58;;
67162;SDS011;54092;53.088;8.850;2023-09-30T00:38:48;15.35;;;4.40;;
67162;SDS011;54092;53.088;8.850;2023-09-30T00:41:14;14.52;;;3.60;;
67162;SDS011;54092;53.088;8.850;2023-09-30T00:43:39;12.15;;;3.88;;
67162;SDS011;54092;53.088;8.850;2023-09-30T00:46:14;17.15;;;4.07;;
67162;SDS011;54092;53.088;8.850;2023-09-30T00:48:48;17.85;;;3.90;;
67162;SDS011;54092;53.088;8.850;2023-09-30T00:51:14;12.75;;;4.22;;
67162;SDS011;54092;53.088;8.850;2023-09-30T00:53:40;15.07;;;3.33;;
67162;SDS011;54092;53.088;8.850;2023-09-30T00:56:06;11.88;;;3.53;;
67162;SDS011;54092;53.088;8.850;2023-09-30T00:58:32;15.05;;;4.35;;
67162;SDS011;54092;53.088;8.850;2023-09-30T01:00:59;17.45;;;3.65;;
67162;SDS011;54092;53.088;8.850;2023-09-30T01:03:25;15.35;;;3.83;;
67162;SDS011;54092;53.088;8.850;2023-09-30T01:05:50;13.32;;;4.25;;
67162;SDS011;54092;53.088;8.850;2023-09-30T01:08:16;11.98;;;3.80;;
67162;SDS011;54092;53.088;8.850;2023-09-30T01:10:43;21.13;;;3.92;;
67162;SDS011;54092;53.088;8.850;2023-09-30T01:13:09;15.85;;;3.78;;
67162;SDS011;54092;53.088;8.850;2023-09-30T01:15:34;11.90;;;4.25;;
67162;SDS011;54092;53.088;8.850;2023-09-30T01:18:01;11.93;;;3.88;;
67162;SDS011;54092;53.088;8.850;2023-09-30T01:20:28;12.40;;;3.90;;
67162;SDS011;54092;53.088;8.850;2023-09-30T01:22:57;15.13;;;4.60;;
67162;SDS011;54092;53.088;8.850;2023-09-30T01:25:23;14.65;;;4.05;;
67162;SDS011;54092;53.088;8.850;2023-09-30T01:27:51;15.40;;;3.83;;
67162;SDS011;54092;53.088;8.850;2023-09-30T01:30:16;17.52;;;4.38;;
67162;SDS011;54092;53.088;8.850;2023-09-30T01:32:43;16.77;;;4.13;;
67162;SDS011;54092;53.088;8.850;2023-09-30T01:35:09;15.68;;;4.03;;
67162;SDS011;54092;53.088;8.850;2023-09-30T01:37:34;14.18;;;3.53;;
67162;SDS011;54092;53.088;8.850;2023-09-30T01:40:00;14.35;;;4.05;;
67162;SDS011;54092;53.088;8.850;2023-09-30T01:42:28;19.08;;;4.38;;
67162;SDS011;54092;53.088;8.850;2023-09-30T01:44:54;20.35;;;4.95;;
67162;SDS011;54092;53.088;8.850;2023-09-30T01:47:21;17.15;;;4.25;;
67162;SDS011;54092;53.088;8.850;2023-09-30T01:49:47;11.98;;;3.65;;
67162;SDS011;54092;53.088;8.850;2023-09-30T01:52:12;15.77;;;4.28;;
67162;SDS011;54092;53.088;8.850;2023-09-30T01:54:38;13.30;;;4.10;;
67162;SDS011;54092;53.088;8.850;2023-09-30T01:57:03;18.38;;;3.83;;
67162;SDS011;54092;53.088;8.850;2023-09-30T01:59:29;15.70;;;4.03;;
67162;SDS011;54092;53.088;8.850;2023-09-30T02:01:55;14.32;;;4.20;;
67162;SDS011;54092;53.088;8.850;2023-09-30T02:04:20;13.20;;;4.28;;
67162;SDS011;54092;53.088;8.850;2023-09-30T02:06:46;18.38;;;4.35;;
67162;SDS011;54092;53.088;8.850;2023-09-30T02:09:11;14.32;;;4.28;;
67162;SDS011;54092;53.088;8.850;2023-09-30T02:11:37;11.30;;;4.30;;
67162;SDS011;54092;53.088;8.850;2023-09-30T02:14:06;14.75;;;4.30;;
67162;SDS011;54092;53.088;8.850;2023-09-30T02:16:31;15.13;;;4.18;;
67162;SDS011;54092;53.088;8.850;2023-09-30T02:18:57;16.80;;;4.28;;
67162;SDS011;54092;53.088;8.850;2023-09-30T02:21:23;13.43;;;4.43;;
67162;SDS011;54092;53.088;8.850;2023-09-30T02:23:48;16.05;;;4.80;;
67162;SDS011;54092;53.088;8.850;2023-09-30T02:26:17;12.77;;;4.40;;
67162;SDS011;54092;53.088;8.850;2023-09-30T02:28:43;19.48;;;4.65;;
67162;SDS011;54092;53.088;8.850;2023-09-30T02:31:08;19.38;;;4.82;;
67162;SDS011;54092;53.088;8.850;2023-09-30T02:33:34;14.60;;;3.85;;
67162;SDS011;54092;53.088;8.850;2023-09-30T02:38:32;17.45;;;5.53;;
67162;SDS011;54092;53.088;8.850;2023-09-30T02:40:57;17.80;;;5.43;;
67162;SDS011;54092;53.088;8.850;2023-09-30T02:43:23;12.45;;;5.28;;
67162;SDS011;54092;53.088;8.850;2023-09-30T02:45:48;19.30;;;4.63;;
67162;SDS011;54092;53.088;8.850;2023-09-30T02:48:15;15.02;;;4.68;;
67162;SDS011;54092;53.088;8.850;2023-09-30T02:50:43;16.30;;;4.38;;
67162;SDS011;54092;53.088;8.850;2023-09-30T02:53:10;21.88;;;4.95;;
67162;SDS011;54092;53.088;8.850;2023-09-30T02:55:36;13.90;;;3.85;;
67162;SDS011;54092;53.088;8.850;2023-09-30T02:58:02;17.17;;;5.15;;
67162;SDS011;54092;53.088;8.850;2023-09-30T03:00:27;12.82;;;4.50;;
67162;SDS011;54092;53.088;8.850;2023-09-30T03:02:59;13.05;;;4.47;;
67162;SDS011;54092;53.088;8.850;2023-09-30T03:05:26;14.15;;;4.47;;
67162;SDS011;54092;53.088;8.850;2023-09-30T03:07:53;16.77;;;4.35;;
67162;SDS011;54092;53.088;8.850;2023-09-30T03:10:19;17.23;;;4.25;;
67162;SDS011;54092;53.088;8.850;2023-09-30T03:12:48;16.48;;;5.13;;
67162;SDS011;54092;53.088;8.850;2023-09-30T03:15:14;12.52;;;4.22;;
67162;SDS011;54092;53.088;8.850;2023-09-30T03:17:41;15.93;;;5.03;;
67162;SDS011;54092;53.088;8.850;2023-09-30T03:20:08;18.27;;;4.13;;
67162;SDS011;54092;53.088;8.850;2023-09-30T03:22:36;14.48;;;3.65;;
67162;SDS011;54092;53.088;8.850;2023-09-30T03:25:06;15.00;;;4.65;;
67162;SDS011;54092;53.088;8.850;2023-09-30T03:27:33;17.17;;;4.78;;
67162;SDS011;54092;53.088;8.850;2023-09-30T03:29:59;12.93;;;4.75;;
67162;SDS011;54092;53.088;8.850;2023-09-30T03:32:26;13.70;;;4.47;;
67162;SDS011;54092;53.088;8.850;2023-09-30T03:34:52;14.93;;;4.40;;
67162;SDS011;54092;53.088;8.850;2023-09-30T03:37:17;15.88;;;4.47;;
67162;SDS011;54092;53.088;8.850;2023-09-30T03:39:43;16.02;;;4.53;;
67162;SDS011;54092;53.088;8.850;2023-09-30T03:42:08;13.70;;;4.50;;
67162;SDS011;54092;53.088;8.850;2023-09-30T03:44:36;15.00;;;4.65;;
67162;SDS011;54092;53.088;8.850;2023-09-30T03:47:03;11.93;;;4.53;;
67162;SDS011;54092;53.088;8.850;2023-09-30T03:49:28;14.73;;;4.75;;
67162;SDS011;54092;53.088;8.850;2023-09-30T03:51:54;14.13;;;5.70;;
67162;SDS011;54092;53.088;8.850;2023-09-30T03:54:19;12.32;;;4.70;;
67162;SDS011;54092;53.088;8.850;2023-09-30T03:56:45;17.50;;;5.28;;
67162;SDS011;54092;53.088;8.850;2023-09-30T03:59:12;12.77;;;4.25;;
67162;SDS011;54092;53.088;8.850;2023-09-30T04:01:37;18.20;;;4.53;;
67162;SDS011;54092;53.088;8.850;2023-09-30T04:04:05;14.10;;;4.45;;
67162;SDS011;54092;53.088;8.850;2023-09-30T04:06:32;15.88;;;4.35;;
67162;SDS011;54092;53.088;8.850;2023-09-30T04:08:58;14.57;;;4.00;;
67162;SDS011;54092;53.088;8.850;2023-09-30T04:11:24;16.27;;;4.63;;
67162;SDS011;54092;53.088;8.850;2023-09-30T04:13:50;14.68;;;4.68;;
67162;SDS011;54092;53.088;8.850;2023-09-30T04:16:15;18.92;;;4.57;;
67162;SDS011;54092;53.088;8.850;2023-09-30T04:18:43;13.25;;;4.30;;
67162;SDS011;54092;53.088;8.850;2023-09-30T04:21:09;17.70;;;5.18;;
67162;SDS011;54092;53.088;8.850;2023-09-30T04:23:34;19.15;;;5.10;;
67162;SDS011;54092;53.088;8.850;2023-09-30T04:26:03;15.75;;;4.50;;
67162;SDS011;54092;53.088;8.850;2023-09-30T04:28:30;18.20;;;4.55;;
67162;SDS011;54092;53.088;8.850;2023-09-30T04:30:55;18.02;;;5.05;;
67162;SDS011;54092;53.088;8.850;2023-09-30T04:33:21;11.98;;;4.22;;
67162;SDS011;54092;53.088;8.850;2023-09-30T04:35:49;14.98;;;4.35;;
67162;SDS011;54092;53.088;8.850;2023-09-30T04:38:15;17.65;;;4.72;;
67162;SDS011;54092;53.088;8.850;2023-09-30T04:40:40;20.80;;;5.05;;
67162;SDS011;54092;53.088;8.850;2023-09-30T04:43:08;14.75;;;4.85;;
67162;SDS011;54092;53.088;8.850;2023-09-30T04:45:34;14.60;;;4.20;;
67162;SDS011;54092;53.088;8.850;2023-09-30T04:47:59;16.20;;;4.25;;
67162;SDS011;54092;53.088;8.850;2023-09-30T04:50:27;18.42;;;4.63;;
67162;SDS011;54092;53.088;8.850;2023-09-30T04:52:52;18.75;;;5.07;;
67162;SDS011;54092;53.088;8.850;2023-09-30T04:55:18;11.63;;;5.10;;
67162;SDS011;54092;53.088;8.850;2023-09-30T04:57:45;18.70;;;5.00;;
67162;SDS011;54092;53.088;8.850;2023-09-30T05:00:13;16.65;;;4.88;;
67162;SDS011;54092;53.088;8.850;2023-09-30T05:02:39;13.23;;;4.20;;
67162;SDS011;54092;53.088;8.850;2023-09-30T05:05:05;11.98;;;3.83;;
67162;SDS011;54092;53.088;8.850;2023-09-30T05:07:31;14.80;;;4.30;;
67162;SDS011;54092;53.088;8.850;2023-09-30T05:09:57;14.13;;;4.38;;
67162;SDS011;54092;53.088;8.850;2023-09-30T05:12:24;15.30;;;5.30;;
67162;SDS011;54092;53.088;8.850;2023-09-30T05:14:50;14.95;;;4.35;;
67162;SDS011;54092;53.088;8.850;2023-09-30T05:17:16;16.30;;;4.07;;
67162;SDS011;54092;53.088;8.850;2023-09-30T05:19:41;11.40;;;3.95;;
67162;SDS011;54092;53.088;8.850;2023-09-30T05:22:07;15.65;;;4.47;;
67162;SDS011;54092;53.088;8.850;2023-09-30T05:24:32;15.15;;;4.40;;
67162;SDS011;54092;53.088;8.850;2023-09-30T05:26:59;10.75;;;4.25;;
67162;SDS011;54092;53.088;8.850;2023-09-30T05:29:26;13.95;;;4.15;;
67162;SDS011;54092;53.088;8.850;2023-09-30T05:31:52;11.98;;;4.13;;
67162;SDS011;54092;53.088;8.850;2023-09-30T05:34:17;12.73;;;4.20;;
67162;SDS011;54092;53.088;8.850;2023-09-30T05:36:43;13.75;;;4.55;;
67162;SDS011;54092;53.088;8.850;2023-09-30T05:39:08;12.15;;;4.65;;
67162;SDS011;54092;53.088;8.850;2023-09-30T05:41:35;11.15;;;4.07;;
67162;SDS011;54092;53.088;8.850;2023-09-30T05:44:02;19.92;;;4.65;;
67162;SDS011;54092;53.088;8.850;2023-09-30T05:46:29;13.32;;;3.90;;
67162;SDS011;54092;53.088;8.850;2023-09-30T05:48:55;12.57;;;4.05;;
67162;SDS011;54092;53.088;8.850;2023-09-30T05:51:21;13.90;;;4.57;;
67162;SDS011;54092;53.088;8.850;2023-09-30T05:53:46;13.00;;;3.85;;
67162;SDS011;54092;53.088;8.850;2023-09-30T05:56:13;14.43;;;5.82;;
67162;SDS011;54092;53.088;8.850;2023-09-30T05:58:40;8.95;;;4.15;;
67162;SDS011;54092;53.088;8.850;2023-09-30T06:01:07;13.95;;;3.80;;
67162;SDS011;54092;53.088;8.850;2023-09-30T06:03:36;13.95;;;4.55;;
67162;SDS011;54092;53.088;8.850;2023-09-30T06:06:09;10.73;;;3.40;;
67162;SDS011;54092;53.088;8.850;2023-09-30T06:08:37;13.80;;;4.57;;
67162;SDS011;54092;53.088;8.850;2023-09-30T06:11:02;17.25;;;4.70;;
67162;SDS011;54092;53.088;8.850;2023-09-30T06:13:28;18.27;;;4.20;;
67162;SDS011;54092;53.088;8.850;2023-09-30T06:15:56;13.38;;;4.22;;
67162;SDS011;54092;53.088;8.850;2023-09-30T06:18:23;15.98;;;4.00;;
67162;SDS011;54092;53.088;8.850;2023-09-30T06:20:48;14.57;;;4.18;;
67162;SDS011;54092;53.088;8.850;2023-09-30T06:23:14;12.15;;;3.70;;
67162;SDS011;54092;53.088;8.850;2023-09-30T06:25:41;18.38;;;4.25;;
67162;SDS011;54092;53.088;8.850;2023-09-30T06:28:07;13.77;;;4.30;;
67162;SDS011;54092;53.088;8.850;2023-09-30T06:30:33;13.18;;;4.03;;
67162;SDS011;54092;53.088;8.850;2023-09-30T06:33:02;12.80;;;3.95;;
67162;SDS011;54092;53.088;8.850;2023-09-30T06:35:30;11.10;;;3.92;;
67162;SDS011;54092;53.088;8.850;2023-09-30T06:37:58;13.10;;;4.28;;
67162;SDS011;54092;53.088;8.850;2023-09-30T06:40:24;16.27;;;4.40;;
67162;SDS011;54092;53.088;8.850;2023-09-30T06:42:50;15.43;;;4.13;;
67162;SDS011;54092;53.088;8.850;2023-09-30T06:45:17;13.88;;;4.47;;
67162;SDS011;54092;53.088;8.850;2023-09-30T06:47:42;14.68;;;3.92;;
67162;SDS011;54092;53.088;8.850;2023-09-30T06:50:10;13.98;;;4.32;;
67162;SDS011;54092;53.088;8.850;2023-09-30T06:52:38;13.20;;;4.75;;
67162;SDS011;54092;53.088;8.850;2023-09-30T06:55:05;16.02;;;4.60;;
67162;SDS011;54092;53.088;8.850;2023-09-30T06:57:32;19.13;;;4.80;;
67162;SDS011;54092;53.088;8.850;2023-09-30T07:00:05;14.27;;;4.18;;
67162;SDS011;54092;53.088;8.850;2023-09-30T07:02:34;12.07;;;3.80;;
67162;SDS011;54092;53.088;8.850;2023-09-30T07:04:59;21.23;;;4.82;;
67162;SDS011;54092;53.088;8.850;2023-09-30T07:07:25;11.93;;;4.05;;
67162;SDS011;54092;53.088;8.850;2023-09-30T07:09:50;11.77;;;4.20;;
67162;SDS011;54092;53.088;8.850;2023-09-30T07:12:16;16.02;;;4.20;;
67162;SDS011;54092;53.088;8.850;2023-09-30T07:14:42;12.50;;;4.18;;
67162;SDS011;54092;53.088;8.850;2023-09-30T07:17:07;8.35;;;3.45;;
67162;SDS011;54092;53.088;8.850;2023-09-30T07:19:33;10.75;;;3.42;;
67162;SDS011;54092;53.088;8.850;2023-09-30T07:21:58;10.90;;;4.03;;
67162;SDS011;54092;53.088;8.850;2023-09-30T07:24:24;22.00;;;4.07;;
67162;SDS011;54092;53.088;8.850;2023-09-30T07:26:49;13.85;;;4.32;;
67162;SDS011;54092;53.088;8.850;2023-09-30T07:29:15;10.55;;;3.38;;
67162;SDS011;54092;53.088;8.850;2023-09-30T07:31:41;11.13;;;3.85;;
67162;SDS011;54092;53.088;8.850;2023-09-30T07:34:07;11.70;;;3.75;;
67162;SDS011;54092;53.088;8.850;2023-09-30T07:36:32;15.77;;;4.75;;
67162;SDS011;54092;53.088;8.850;2023-09-30T07:38:58;10.82;;;4.20;;
67162;SDS011;54092;53.088;8.850;2023-09-30T07:41:25;14.10;;;3.80;;
67162;SDS011;54092;53.088;8.850;2023-09-30T07:43:51;13.23;;;3.90;;
67162;SDS011;54092;53.088;8.850;2023-09-30T07:46:17;11.85;;;3.95;;
67162;SDS011;54092;53.088;8.850;2023-09-30T07:48:42;12.80;;;3.83;;
67162;SDS011;54092;53.088;8.850;2023-09-30T07:51:08;13.93;;;4.10;;
67162;SDS011;54092;53.088;8.850;2023-09-30T07:53:37;12.85;;;3.83;;
67162;SDS011;54092;53.088;8.850;2023-09-30T07:56:05;11.32;;;3.30;;
67162;SDS011;54092;53.088;8.850;2023-09-30T07:58:31;14.55;;;3.88;;
67162;SDS011;54092;53.088;8.850;2023-09-30T08:00:57;11.50;;;4.07;;
67162;SDS011;54092;53.088;8.850;2023-09-30T08:03:22;10.68;;;3.78;;
67162;SDS011;54092;53.088;8.850;2023-09-30T08:05:48;10.60;;;3.45;;
67162;SDS011;54092;53.088;8.850;2023-09-30T08:08:13;10.70;;;3.60;;
67162;SDS011;54092;53.088;8.850;2023-09-30T08:10:39;16.05;;;3.92;;
67162;SDS011;54092;53.088;8.850;2023-09-30T08:13:05;9.27;;;3.15;;
67162;SDS011;54092;53.088;8.850;2023-09-30T08:15:30;9.88;;;3.40;;
67162;SDS011;54092;53.088;8.850;2023-09-30T08:17:56;11.77;;;3.53;;
67162;SDS011;54092;53.088;8.850;2023-09-30T08:20:21;16.15;;;3.38;;
67162;SDS011;54092;53.088;8.850;2023-09-30T08:22:47;9.75;;;3.72;;
67162;SDS011;54092;53.088;8.850;2023-09-30T08:25:13;10.52;;;4.00;;
67162;SDS011;54092;53.088;8.850;2023-09-30T08:27:38;12.43;;;2.88;;
67162;SDS011;54092;53.088;8.850;2023-09-30T08:30:04;12.65;;;3.25;;
67162;SDS011;54092;53.088;8.850;2023-09-30T08:32:37;8.23;;;3.45;;
67162;SDS011;54092;53.088;8.850;2023-09-30T08:35:04;12.52;;;3.42;;
67162;SDS011;54092;53.088;8.850;2023-09-30T08:37:30;9.90;;;3.05;;
67162;SDS011;54092;53.088;8.850;2023-09-30T08:39:56;12.00;;;3.72;;
67162;SDS011;54092;53.088;8.850;2023-09-30T08:42:22;12.90;;;3.42;;
67162;SDS011;54092;53.088;8.850;2023-09-30T08:44:50;7.78;;;3.35;;
67162;SDS011;54092;53.088;8.850;2023-09-30T08:47:18;13.98;;;2.88;;
67162;SDS011;54092;53.088;8.850;2023-09-30T08:49:45;10.15;;;3.22;;
67162;SDS011;54092;53.088;8.850;2023-09-30T08:52:12;9.55;;;2.80;;
67162;SDS011;54092;53.088;8.850;2023-09-30T08:54:39;9.98;;;3.00;;
67162;SDS011;54092;53.088;8.850;2023-09-30T08:57:05;10.85;;;3.50;;
67162;SDS011;54092;53.088;8.850;2023-09-30T09:02:00;8.70;;;3.00;;
67162;SDS011;54092;53.088;8.850;2023-09-30T09:04:26;8.90;;;3.17;;
67162;SDS011;54092;53.088;8.850;2023-09-30T09:06:53;8.38;;;2.75;;
67162;SDS011;54092;53.088;8.850;2023-09-30T09:09:20;17.07;;;3.87;;
67162;SDS011;54092;53.088;8.850;2023-09-30T09:11:47;14.85;;;3.00;;
67162;SDS011;54092;53.088;8.850;2023-09-30T09:14:13;7.75;;;3.40;;
67162;SDS011;54092;53.088;8.850;2023-09-30T09:16:52;9.27;;;2.65;;
67162;SDS011;54092;53.088;8.850;2023-09-30T09:19:18;11.73;;;3.97;;
67162;SDS011;54092;53.088;8.850;2023-09-30T09:21:58;9.77;;;3.45;;
67162;SDS011;54092;53.088;8.850;2023-09-30T09:27:00;9.98;;;3.17;;
67162;SDS011;54092;53.088;8.850;2023-09-30T09:29:41;11.27;;;2.53;;
67162;SDS011;54092;53.088;8.850;2023-09-30T09:32:10;7.53;;;2.60;;
67162;SDS011;54092;53.088;8.850;2023-09-30T09:34:41;9.77;;;3.17;;
67162;SDS011;54092;53.088;8.850;2023-09-30T09:37:18;7.63;;;2.50;;
67162;SDS011;54092;53.088;8.850;2023-09-30T09:39:48;8.20;;;2.72;;
67162;SDS011;54092;53.088;8.850;2023-09-30T09:42:28;6.97;;;2.55;;
67162;SDS011;54092;53.088;8.850;2023-09-30T09:44:56;7.68;;;2.45;;
67162;SDS011;54092;53.088;8.850;2023-09-30T09:47:23;13.25;;;3.47;;
67162;SDS011;54092;53.088;8.850;2023-09-30T09:49:52;8.75;;;2.70;;
67162;SDS011;54092;53.088;8.850;2023-09-30T09:54:44;10.77;;;2.50;;
67162;SDS011;54092;53.088;8.850;2023-09-30T09:57:11;6.93;;;2.50;;
67162;SDS011;54092;53.088;8.850;2023-09-30T09:59:38;8.18;;;2.63;;
67162;SDS011;54092;53.088;8.850;2023-09-30T10:02:10;9.32;;;2.50;;
67162;SDS011;54092;53.088;8.850;2023-09-30T10:04:37;8.65;;;2.60;;
67162;SDS011;54092;53.088;8.850;2023-09-30T10:07:03;9.65;;;2.28;;
67162;SDS011;54092;53.088;8.850;2023-09-30T10:09:30;10.70;;;2.80;;
67162;SDS011;54092;53.088;8.850;2023-09-30T10:12:00;14.38;;;3.13;;
67162;SDS011;54092;53.088;8.850;2023-09-30T10:14:30;13.35;;;2.78;;
67162;SDS011;54092;53.088;8.850;2023-09-30T10:16:57;9.93;;;2.60;;
67162;SDS011;54092;53.088;8.850;2023-09-30T10:19:23;8.40;;;2.92;;
67162;SDS011;54092;53.088;8.850;2023-09-30T10:24:43;8.90;;;2.50;;
67162;SDS011;54092;53.088;8.850;2023-09-30T10:40:48;9.70;;;2.30;;
67162;SDS011;54092;53.088;8.850;2023-09-30T10:43:31;9.18;;;2.30;;
67162;SDS011;54092;53.088;8.850;2023-09-30T10:48:51;7.72;;;2.08;;
67162;SDS011;54092;53.088;8.850;2023-09-30T10:51:17;6.85;;;2.08;;
67162;SDS011;54092;53.088;8.850;2023-09-30T10:53:50;8.52;;;2.15;;
67162;SDS011;54092;53.088;8.850;2023-09-30T10:56:17;7.65;;;2.30;;
67162;SDS011;54092;53.088;8.850;2023-09-30T10:58:47;7.97;;;1.95;;
67162;SDS011;54092;53.088;8.850;2023-09-30T11:01:18;7.97;;;2.30;;
67162;SDS011;54092;53.088;8.850;2023-09-30T11:03:44;7.70;;;2.30;;
67162;SDS011;54092;53.088;8.850;2023-09-30T11:06:14;8.63;;;2.35;;
67162;SDS011;54092;53.088;8.850;2023-09-30T11:08:52;9.23;;;2.20;;
67162;SDS011;54092;53.088;8.850;2023-09-30T11:11:39;10.35;;;2.33;;
67162;SDS011;54092;53.088;8.850;2023-09-30T11:14:29;8.60;;;2.13;;
67162;SDS011;54092;53.088;8.850;2023-09-30T11:16:56;8.88;;;2.28;;
67162;SDS011;54092;53.088;8.850;2023-09-30T11:19:24;6.57;;;1.80;;
67162;SDS011;54092;53.088;8.850;2023-09-30T11:21:54;8.93;;;2.22;;
67162;SDS011;54092;53.088;8.850;2023-09-30T11:24:20;5.88;;;1.92;;
67162;SDS011;54092;53.088;8.850;2023-09-30T11:26:46;7.60;;;2.42;;
67162;SDS011;54092;53.088;8.850;2023-09-30T11:29:13;7.30;;;2.05;;
67162;SDS011;54092;53.088;8.850;2023-09-30T11:31:44;5.97;;;1.75;;
67162;SDS011;54092;53.088;8.850;2023-09-30T11:34:11;8.23;;;1.95;;
67162;SDS011;54092;53.088;8.850;2023-09-30T11:36:38;7.90;;;1.95;;
67162;SDS011;54092;53.088;8.850;2023-09-30T11:39:07;5.78;;;1.80;;
67162;SDS011;54092;53.088;8.850;2023-09-30T11:41:37;8.98;;;1.90;;
67162;SDS011;54092;53.088;8.850;2023-09-30T11:44:07;5.57;;;1.77;;
67162;SDS011;54092;53.088;8.850;2023-09-30T11:49:26;5.88;;;2.10;;
67162;SDS011;54092;53.088;8.850;2023-09-30T11:51:53;9.32;;;1.77;;
67162;SDS011;54092;53.088;8.850;2023-09-30T11:54:19;5.50;;;2.03;;
67162;SDS011;54092;53.088;8.850;2023-09-30T11:56:46;6.30;;;1.80;;
67162;SDS011;54092;53.088;8.850;2023-09-30T11:59:12;4.85;;;2.10;;
67162;SDS011;54092;53.088;8.850;2023-09-30T12:01:38;3.90;;;1.77;;
67162;SDS011;54092;53.088;8.850;2023-09-30T12:04:04;7.90;;;2.10;;
67162;SDS011;54092;53.088;8.850;2023-09-30T12:06:30;7.20;;;1.80;;
67162;SDS011;54092;53.088;8.850;2023-09-30T12:08:56;7.35;;;1.92;;
67162;SDS011;54092;53.088;8.850;2023-09-30T12:11:22;7.75;;;2.20;;
67162;SDS011;54092;53.088;8.850;2023-09-30T12:13:49;7.80;;;2.00;;
67162;SDS011;54092;53.088;8.850;2023-09-30T12:16:15;5.88;;;1.70;;
67162;SDS011;54092;53.088;8.850;2023-09-30T12:18:42;7.30;;;1.98;;
67162;SDS011;54092;53.088;8.850;2023-09-30T12:21:11;7.70;;;2.05;;
67162;SDS011;54092;53.088;8.850;2023-09-30T12:23:38;3.60;;;1.50;;
67162;SDS011;54092;53.088;8.850;2023-09-30T12:26:04;6.88;;;2.10;;
67162;SDS011;54092;53.088;8.850;2023-09-30T12:28:31;4.97;;;2.20;;
67162;SDS011;54092;53.088;8.850;2023-09-30T12:30:57;5.07;;;1.92;;
67162;SDS011;54092;53.088;8.850;2023-09-30T12:33:24;5.90;;;2.00;;
67162;SDS011;54092;53.088;8.850;2023-09-30T12:35:49;4.78;;;1.70;;
67162;SDS011;54092;53.088;8.850;2023-09-30T12:38:16;10.13;;;2.17;;
67162;SDS011;54092;53.088;8.850;2023-09-30T12:40:42;6.50;;;2.00;;
67162;SDS011;54092;53.088;8.850;2023-09-30T12:43:18;5.60;;;2.35;;
67162;SDS011;54092;53.088;8.850;2023-09-30T12:45:44;8.30;;;2.35;;
67162;SDS011;54092;53.088;8.850;2023-09-30T12:48:10;7.07;;;2.25;;
67162;SDS011;54092;53.088;8.850;2023-09-30T12:50:36;7.13;;;2.60;;
67162;SDS011;54092;53.088;8.850;2023-09-30T12:53:02;12.82;;;3.95;;
67162;SDS011;54092;53.088;8.850;2023-09-30T12:55:27;6.18;;;2.40;;
67162;SDS011;54092;53.088;8.850;2023-09-30T12:57:53;9.40;;;2.33;;
67162;SDS011;54092;53.088;8.850;2023-09-30T13:00:18;8.15;;;2.13;;
67162;SDS011;54092;53.088;8.850;2023-09-30T13:02:46;7.22;;;1.95;;
67162;SDS011;54092;53.088;8.850;2023-09-30T13:05:13;5.85;;;1.80;;
67162;SDS011;54092;53.088;8.850;2023-09-30T13:07:39;5.28;;;1.75;;
67162;SDS011;54092;53.088;8.850;2023-09-30T13:10:04;4.68;;;1.73;;
67162;SDS011;54092;53.088;8.850;2023-09-30T13:12:31;5.97;;;1.85;;
67162;SDS011;54092;53.088;8.850;2023-09-30T13:17:25;7.35;;;1.80;;
67162;SDS011;54092;53.088;8.850;2023-09-30T13:19:51;4.60;;;1.67;;
67162;SDS011;54092;53.088;8.850;2023-09-30T13:22:17;6.60;;;1.98;;
67162;SDS011;54092;53.088;8.850;2023-09-30T13:24:43;7.22;;;1.90;;
67162;SDS011;54092;53.088;8.850;2023-09-30T13:27:09;5.38;;;1.80;;
67162;SDS011;54092;53.088;8.850;2023-09-30T13:29:34;7.75;;;2.00;;
67162;SDS011;54092;53.088;8.850;2023-09-30T13:32:00;5.88;;;1.55;;
67162;SDS011;54092;53.088;8.850;2023-09-30T13:34:26;6.80;;;1.80;;
67162;SDS011;54092;53.088;8.850;2023-09-30T13:36:54;3.65;;;1.67;;
67162;SDS011;54092;53.088;8.850;2023-09-30T13:39:19;6.88;;;1.92;;
67162;SDS011;54092;53.088;8.850;2023-09-30T13:41:46;4.97;;;1.73;;
67162;SDS011;54092;53.088;8.850;2023-09-30T13:44:14;6.00;;;1.70;;
67162;SDS011;54092;53.088;8.850;2023-09-30T13:46:39;7.30;;;1.80;;
67162;SDS011;54092;53.088;8.850;2023-09-30T13:49:05;13.98;;;2.72;;
67162;SDS011;54092;53.088;8.850;2023-09-30T13:51:31;8.82;;;3.00;;
67162;SDS011;54092;53.088;8.850;2023-09-30T13:53:56;8.55;;;2.00;;
67162;SDS011;54092;53.088;8.850;2023-09-30T13:56:22;4.78;;;1.90;;
67162;SDS011;54092;53.088;8.850;2023-09-30T13:58:47;7.90;;;5.25;;
67162;SDS011;54092;53.088;8.850;2023-09-30T14:03:45;4.55;;;2.08;;
67162;SDS011;54092;53.088;8.850;2023-09-30T14:06:12;6.25;;;2.08;;
67162;SDS011;54092;53.088;8.850;2023-09-30T14:08:38;6.63;;;1.80;;
67162;SDS011;54092;53.088;8.850;2023-09-30T14:11:11;6.18;;;2.10;;
67162;SDS011;54092;53.088;8.850;2023-09-30T14:13:37;4.88;;;1.80;;
67162;SDS011;54092;53.088;8.850;2023-09-30T14:16:04;7.05;;;1.80;;
67162;SDS011;54092;53.088;8.850;2023-09-30T14:18:30;6.00;;;2.30;;
67162;SDS011;54092;53.088;8.850;2023-09-30T14:20:55;7.47;;;2.00;;
67162;SDS011;54092;53.088;8.850;2023-09-30T14:23:21;6.90;;;2.15;;
67162;SDS011;54092;53.088;8.850;2023-09-30T14:25:48;6.13;;;1.70;;
67162;SDS011;54092;53.088;8.850;2023-09-30T14:28:14;9.20;;;2.03;;
67162;SDS011;54092;53.088;8.850;2023-09-30T14:30:39;9.65;;;2.00;;
67162;SDS011;54092;53.088;8.850;2023-09-30T14:33:05;8.38;;;2.20;;
67162;SDS011;54092;53.088;8.850;2023-09-30T14:35:32;5.13;;;2.20;;
67162;SDS011;54092;53.088;8.850;2023-09-30T14:37:59;7.25;;;2.05;;
67162;SDS011;54092;53.088;8.850;2023-09-30T14:40:25;7.25;;;2.17;;
67162;SDS011;54092;53.088;8.850;2023-09-30T14:42:51;6.13;;;1.95;;
67162;SDS011;54092;53.088;8.850;2023-09-30T14:45:16;9.23;;;2.97;;
67162;SDS011;54092;53.088;8.850;2023-09-30T14:47:42;6.07;;;2.10;;
67162;SDS011;54092;53.088;8.850;2023-09-30T14:50:08;6.38;;;2.03;;
67162;SDS011;54092;53.088;8.850;2023-09-30T14:52:34;7.40;;;2.42;;
67162;SDS011;54092;53.088;8.850;2023-09-30T14:54:59;8.55;;;2.22;;
67162;SDS011;54092;53.088;8.850;2023-09-30T14:57:25;10.57;;;2.20;;
67162;SDS011;54092;53.088;8.850;2023-09-30T14:59:51;9.02;;;2.35;;
67162;SDS011;54092;53.088;8.850;2023-09-30T15:02:16;6.57;;;2.35;;
67162;SDS011;54092;53.088;8.850;2023-09-30T15:04:42;9.23;;;2.28;;
67162;SDS011;54092;53.088;8.850;2023-09-30T15:07:08;5.45;;;2.13;;
67162;SDS011;54092;53.088;8.850;2023-09-30T15:09:33;8.30;;;2.13;;
67162;SDS011;54092;53.088;8.850;2023-09-30T15:12:00;10.10;;;2.10;;
67162;SDS011;54092;53.088;8.850;2023-09-30T15:14:25;8.85;;;1.98;;